createdAt,value
2022-11-28T00:03:33.825Z,9
2022-11-28T00:08:35.712Z,7
2022-11-28T00:13:37.452Z,6
2022-11-28T00:18:39.206Z,6
2022-11-28T00:23:41.029Z,6
2022-11-28T00:28:42.748Z,5
2022-11-28T00:33:44.421Z,6
2022-11-28T00:38:46.120Z,6
2022-11-28T00:43:47.855Z,6
2022-11-28T00:48:49.549Z,6
2022-11-28T00:53:51.208Z,6
2022-11-28T00:58:52.898Z,3
2022-11-28T01:03:54.720Z,5
2022-11-28T01:08:56.591Z,5
2022-11-28T01:13:58.321Z,3
2022-11-28T01:19:00.010Z,5
2022-11-28T01:24:01.832Z,5
2022-11-28T01:29:08.735Z,6
2022-11-28T01:34:10.526Z,5
2022-11-28T01:39:12.249Z,5
2022-11-28T01:44:14.008Z,6
2022-11-28T01:49:15.726Z,6
2022-11-28T01:54:17.402Z,6
2022-11-28T01:59:19.576Z,6
2022-11-28T02:04:21.387Z,9
2022-11-28T02:09:23.090Z,7
2022-11-28T02:14:24.820Z,7
2022-11-28T02:19:26.481Z,9
2022-11-28T02:24:28.260Z,10
2022-11-28T02:29:29.932Z,9
2022-11-28T02:34:31.838Z,6
2022-11-28T02:39:33.525Z,7
2022-11-28T02:44:35.155Z,9
2022-11-28T02:49:36.816Z,7
2022-11-28T02:54:38.635Z,9
2022-11-28T02:59:40.331Z,9
2022-11-28T03:04:42.336Z,9
2022-11-28T03:09:44.280Z,7
2022-11-28T03:14:45.922Z,3
2022-11-28T03:19:47.508Z,6
2022-11-28T03:24:49.143Z,6
2022-11-28T03:29:50.724Z,6
2022-11-28T03:34:52.393Z,5
2022-11-28T03:39:54.010Z,6
2022-11-28T03:44:55.672Z,5
2022-11-28T03:49:57.276Z,3
2022-11-28T03:54:58.907Z,2
2022-11-28T04:00:00.559Z,0
2022-11-28T04:05:02.190Z,0
2022-11-28T04:10:03.792Z,0
2022-11-28T04:15:05.545Z,0
2022-11-28T04:20:07.148Z,1
2022-11-28T04:25:08.802Z,0
2022-11-28T04:30:10.475Z,0
2022-11-28T04:35:12.095Z,0
2022-11-28T04:40:13.717Z,0
2022-11-28T04:45:15.332Z,0
2022-11-28T04:50:17.001Z,0
2022-11-28T04:55:18.818Z,0
2022-11-28T05:00:20.623Z,0
2022-11-28T05:05:22.499Z,0
2022-11-28T05:10:24.206Z,0
2022-11-28T05:15:25.986Z,0
2022-11-28T05:20:27.787Z,0
2022-11-28T05:25:29.522Z,0
2022-11-28T05:30:31.382Z,0
2022-11-28T05:35:33.120Z,0
2022-11-28T05:40:34.807Z,0
2022-11-28T05:45:36.535Z,0
2022-11-28T05:50:40.009Z,0
2022-11-28T05:55:42.021Z,0
2022-11-28T06:00:43.767Z,0
2022-11-28T06:05:45.562Z,0
2022-11-28T06:10:47.342Z,0
2022-11-28T06:15:49.143Z,0
2022-11-28T06:20:50.856Z,0
2022-11-28T06:25:52.555Z,0
2022-11-28T06:30:54.197Z,0
2022-11-28T06:35:56.090Z,0
2022-11-28T06:40:57.741Z,0
2022-11-28T06:45:59.589Z,0
2022-11-28T06:51:01.289Z,0
2022-11-28T06:56:02.941Z,0
2022-11-28T07:01:04.651Z,0
2022-11-28T07:06:06.351Z,0
2022-11-28T07:11:08.169Z,0
2022-11-28T07:16:09.955Z,0
2022-11-28T07:21:11.895Z,0
2022-11-28T07:26:13.602Z,0
2022-11-28T07:31:15.625Z,0
2022-11-28T07:36:17.515Z,5
2022-11-28T07:41:23.624Z,0
2022-11-28T07:46:28.483Z,0
2022-11-28T07:51:30.192Z,0
2022-11-28T07:56:57.248Z,0
2022-11-28T08:02:12.858Z,5
2022-11-28T08:07:14.685Z,0
2022-11-28T08:12:16.447Z,0
2022-11-28T08:17:18.180Z,0
2022-11-28T08:22:19.856Z,0
2022-11-28T08:27:21.532Z,0
2022-11-28T08:32:23.191Z,0
2022-11-28T08:37:24.937Z,0
2022-11-28T08:42:26.581Z,0
2022-11-28T08:47:28.274Z,0
2022-11-28T08:52:30.012Z,0
2022-11-28T08:57:31.632Z,1
2022-11-28T09:02:33.506Z,0
2022-11-28T09:07:35.245Z,1
2022-11-28T09:12:36.908Z,1
2022-11-28T09:17:38.659Z,1
2022-11-28T09:22:40.363Z,0
2022-11-28T09:27:42.247Z,0
2022-11-28T09:32:44.142Z,0
2022-11-28T09:37:45.786Z,0
2022-11-28T09:42:47.406Z,0
2022-11-28T09:47:49.073Z,0
2022-11-28T09:52:50.848Z,0
2022-11-28T09:57:52.568Z,0
2022-11-28T10:02:54.199Z,0
2022-11-28T10:07:55.880Z,1
2022-11-28T10:12:57.649Z,0
2022-11-28T10:17:59.386Z,0
2022-11-28T10:23:01.150Z,0
2022-11-28T10:28:02.859Z,0
2022-11-28T10:33:04.422Z,0
2022-11-28T10:38:06.042Z,0
2022-11-28T10:43:07.725Z,0
2022-11-28T10:48:38.050Z,0
2022-11-28T10:53:40.697Z,0
2022-11-28T10:58:42.350Z,0
2022-11-28T11:03:43.968Z,0
2022-11-28T11:08:45.591Z,0
2022-11-28T11:13:47.248Z,0
2022-11-28T11:18:49.022Z,0
2022-11-28T11:23:50.650Z,3
2022-11-28T11:28:52.372Z,0
2022-11-28T11:33:54.087Z,0
2022-11-28T11:38:56.011Z,0
2022-11-28T11:43:57.741Z,0
2022-11-28T11:48:59.462Z,0
2022-11-28T11:54:01.118Z,0
2022-11-28T11:59:02.806Z,0
2022-11-28T12:04:23.655Z,0
2022-11-28T12:09:32.359Z,0
2022-11-28T12:14:34.007Z,0
2022-11-28T12:19:35.657Z,0
2022-11-28T12:24:37.308Z,0
2022-11-28T12:29:38.968Z,0
2022-11-28T12:34:40.613Z,0
2022-11-28T12:39:42.673Z,0
2022-11-28T12:44:44.582Z,1
2022-11-28T12:49:46.981Z,1
2022-11-28T12:54:48.939Z,1
2022-11-28T12:59:50.757Z,2
2022-11-28T13:04:52.692Z,0
2022-11-28T13:09:54.527Z,1
2022-11-28T13:14:56.307Z,1
2022-11-28T13:19:57.944Z,2
2022-11-28T13:24:59.561Z,4
2022-11-28T13:30:01.240Z,1
2022-11-28T13:35:02.959Z,1
2022-11-28T13:40:04.736Z,2
2022-11-28T13:45:06.586Z,2
2022-11-28T13:50:08.308Z,1
2022-11-28T13:55:10.053Z,2
2022-11-28T14:00:11.854Z,2
2022-11-28T14:05:13.683Z,1
2022-11-28T14:10:15.506Z,2
2022-11-28T14:15:17.322Z,1
2022-11-28T14:20:19.099Z,2
2022-11-28T14:25:20.783Z,1
2022-11-28T14:30:22.446Z,1
2022-11-28T14:35:24.101Z,5
2022-11-28T14:40:25.772Z,4
2022-11-28T14:45:27.663Z,2
2022-11-28T14:50:29.324Z,4
2022-11-28T14:55:31.288Z,14
2022-11-28T15:00:32.986Z,9
2022-11-28T15:05:34.647Z,9
2022-11-28T15:10:36.315Z,9
2022-11-28T15:15:37.963Z,9
2022-11-28T15:20:39.633Z,12
2022-11-28T15:25:41.296Z,11
2022-11-28T15:30:42.931Z,9
2022-11-28T15:35:44.535Z,16
2022-11-28T15:40:46.162Z,12
2022-11-28T15:45:47.874Z,12
2022-11-28T15:50:49.528Z,8
2022-11-28T15:55:51.142Z,11
2022-11-28T16:00:52.814Z,12
2022-11-28T16:05:54.445Z,12
2022-11-28T16:10:56.178Z,15
2022-11-28T16:15:57.848Z,12
2022-11-28T16:20:59.517Z,14
2022-11-28T16:26:01.191Z,15
2022-11-28T16:31:03.009Z,14
2022-11-28T16:36:04.887Z,17
2022-11-28T16:41:06.660Z,18
2022-11-28T16:46:08.374Z,16
2022-11-28T16:51:10.263Z,15
2022-11-28T16:56:11.908Z,16
2022-11-28T17:01:13.638Z,16
2022-11-28T17:06:15.373Z,15
2022-11-28T17:11:16.980Z,15
2022-11-28T17:16:18.718Z,15
2022-11-28T17:21:20.651Z,22
2022-11-28T17:26:22.258Z,18
2022-11-28T17:31:23.971Z,19
2022-11-28T17:36:25.601Z,17
2022-11-28T17:41:27.263Z,18
2022-11-28T17:46:28.976Z,19
2022-11-28T17:51:30.568Z,20
2022-11-28T17:56:32.189Z,20
2022-11-28T18:01:34.059Z,17
2022-11-28T18:06:35.788Z,17
2022-11-28T18:11:37.650Z,15
2022-11-28T18:16:39.443Z,21
2022-11-28T18:21:41.160Z,16
2022-11-28T18:26:43.050Z,15
2022-11-28T18:31:44.693Z,13
2022-11-28T18:36:46.395Z,15
2022-11-28T18:41:48.064Z,18
2022-11-28T18:46:49.750Z,18
2022-11-28T18:51:51.443Z,18
2022-11-28T18:56:53.312Z,21
2022-11-28T19:01:54.941Z,24
2022-11-28T19:06:56.733Z,24
2022-11-28T19:11:58.467Z,18
2022-11-28T19:17:00.135Z,18
2022-11-28T19:22:01.810Z,19
2022-11-28T19:27:03.414Z,18
2022-11-28T19:32:05.102Z,24
2022-11-28T19:37:06.717Z,21
2022-11-28T19:42:08.440Z,22
2022-11-28T19:47:10.168Z,23
2022-11-28T19:52:11.865Z,22
2022-11-28T19:57:13.455Z,21
2022-11-28T20:02:15.117Z,25
2022-11-28T20:07:17.158Z,22
2022-11-28T20:12:18.821Z,28
2022-11-28T20:17:20.507Z,26
2022-11-28T20:22:22.151Z,27
2022-11-28T20:27:23.753Z,20
2022-11-28T20:32:25.503Z,25
2022-11-28T20:37:27.251Z,21
2022-11-28T20:42:29.082Z,21
2022-11-28T20:47:30.777Z,20
2022-11-28T20:52:32.373Z,21
2022-11-28T20:57:33.996Z,17
2022-11-28T21:02:36.001Z,20
2022-11-28T21:07:37.841Z,18
2022-11-28T21:12:39.543Z,15
2022-11-28T21:17:41.245Z,19
2022-11-28T21:22:42.921Z,20
2022-11-28T21:27:44.598Z,18
2022-11-28T21:32:46.363Z,18
2022-11-28T21:37:48.388Z,18
2022-11-28T21:42:50.030Z,20
2022-11-28T21:47:51.699Z,18
2022-11-28T21:52:53.524Z,22
2022-11-28T21:57:55.242Z,20
2022-11-28T22:03:02.737Z,18
2022-11-28T22:08:05.738Z,18
2022-11-28T22:13:07.415Z,18
2022-11-28T22:18:09.063Z,18
2022-11-28T22:23:10.789Z,18
2022-11-28T22:28:12.428Z,18
2022-11-28T22:33:14.169Z,18
2022-11-28T22:38:15.882Z,18
2022-11-28T22:43:17.623Z,18
2022-11-28T22:48:19.343Z,15
2022-11-28T22:53:20.978Z,17
2022-11-28T22:58:22.724Z,15
2022-11-28T23:03:24.625Z,17
2022-11-28T23:08:26.365Z,9
2022-11-28T23:13:28.057Z,7
2022-11-28T23:18:29.719Z,8
2022-11-28T23:23:31.470Z,5
2022-11-28T23:28:33.072Z,2
2022-11-28T23:33:34.831Z,5
2022-11-28T23:38:36.751Z,4
2022-11-28T23:43:38.472Z,11
2022-11-28T23:48:40.665Z,8
2022-11-28T23:53:42.289Z,8
2022-11-28T23:58:44.069Z,10
